sensor_id;sensor_type;location;lat;lon;timestamp;pressure;altitude;pressure_sealevel;temperature;humidity
23574;BME280;11965;53.640;10.050;2023-04-04T00:02:19;103114.19;;;-1.90;100.00
23574;BME280;11965;53.640;10.050;2023-04-04T00:04:46;103104.31;;;-1.93;100.00
23574;BME280;11965;53.640;10.050;2023-04-04T00:07:13;103098.88;;;-1.93;100.00
23574;BME280;11965;53.640;10.050;2023-04-04T00:09:41;103096.19;;;-1.94;100.00
23574;BME280;11965;53.640;10.050;2023-04-04T00:12:08;103096.44;;;-2.01;100.00
23574;BME280;11965;53.640;10.050;2023-04-04T00:14:35;103097.47;;;-2.05;100.00
23574;BME280;11965;53.640;10.050;2023-04-04T00:17:02;103101.19;;;-2.07;100.00
23574;BME280;11965;53.640;10.050;2023-04-04T00:19:28;103089.41;;;-2.06;100.00
23574;BME280;11965;53.640;10.050;2023-04-04T00:21:55;103084.84;;;-2.06;100.00
23574;BME280;11965;53.640;10.050;2023-04-04T00:24:22;103087.41;;;-2.01;100.00
23574;BME280;11965;53.640;10.050;2023-04-04T00:26:50;103081.91;;;-2.00;100.00
23574;BME280;11965;53.640;10.050;2023-04-04T00:29:17;103077.47;;;-2.02;100.00
23574;BME280;11965;53.640;10.050;2023-04-04T00:31:44;103081.84;;;-1.98;100.00
23574;BME280;11965;53.640;10.050;2023-04-04T00:34:11;103084.63;;;-2.00;100.00
23574;BME280;11965;53.640;10.050;2023-04-04T00:36:38;103081.84;;;-1.98;100.00
23574;BME280;11965;53.640;10.050;2023-04-04T00:39:05;103073.88;;;-2.03;100.00
23574;BME280;11965;53.640;10.050;2023-04-04T00:41:32;103065.16;;;-2.12;100.00
23574;BME280;11965;53.640;10.050;2023-04-04T00:44:03;103076.75;;;-2.07;100.00
23574;BME280;11965;53.640;10.050;2023-04-04T00:46:30;103079.28;;;-2.03;100.00
23574;BME280;11965;53.640;10.050;2023-04-04T00:48:57;103073.88;;;-2.03;100.00
23574;BME280;11965;53.640;10.050;2023-04-04T00:51:24;103071.03;;;-2.00;100.00
23574;BME280;11965;53.640;10.050;2023-04-04T00:53:52;103065.72;;;-2.03;100.00
23574;BME280;11965;53.640;10.050;2023-04-04T00:56:19;103070.25;;;-2.03;100.00
23574;BME280;11965;53.640;10.050;2023-04-04T00:58:47;103068.38;;;-2.01;100.00
23574;BME280;11965;53.640;10.050;2023-04-04T01:01:15;103067.44;;;-2.00;100.00
23574;BME280;11965;53.640;10.050;2023-04-04T01:03:43;103063.00;;;-2.03;100.00
23574;BME280;11965;53.640;10.050;2023-04-04T01:06:10;103058.56;;;-2.05;100.00
23574;BME280;11965;53.640;10.050;2023-04-04T01:08:38;103063.00;;;-2.03;100.00
23574;BME280;11965;53.640;10.050;2023-04-04T01:11:07;103057.56;;;-2.03;100.00
23574;BME280;11965;53.640;10.050;2023-04-04T01:13:34;103058.50;;;-2.04;100.00
23574;BME280;11965;53.640;10.050;2023-04-04T01:16:01;103055.69;;;-2.01;100.00
23574;BME280;11965;53.640;10.050;2023-04-04T01:18:33;103048.66;;;-2.06;100.00
23574;BME280;11965;53.640;10.050;2023-04-04T01:21:02;103047.81;;;-2.08;100.00
23574;BME280;11965;53.640;10.050;2023-04-04T01:23:43;103036.94;;;-2.08;100.00
23574;BME280;11965;53.640;10.050;2023-04-04T01:26:15;103030.56;;;-2.07;100.00
23574;BME280;11965;53.640;10.050;2023-04-04T01:28:42;103036.94;;;-2.08;100.00
23574;BME280;11965;53.640;10.050;2023-04-04T01:31:13;103035.06;;;-2.06;100.00
23574;BME280;11965;53.640;10.050;2023-04-04T01:33:45;103033.09;;;-2.03;100.00
23574;BME280;11965;53.640;10.050;2023-04-04T01:36:23;103027.63;;;-2.01;100.00
23574;BME280;11965;53.640;10.050;2023-04-04T01:38:56;103022.19;;;-2.01;100.00
23574;BME280;11965;53.640;10.050;2023-04-04T01:41:32;103019.69;;;-2.07;100.00
23574;BME280;11965;53.640;10.050;2023-04-04T01:44:01;103020.69;;;-2.10;100.00
23574;BME280;11965;53.640;10.050;2023-04-04T01:46:28;103020.94;;;-2.16;100.00
23574;BME280;11965;53.640;10.050;2023-04-04T01:48:55;103019.16;;;-2.17;100.00
23574;BME280;11965;53.640;10.050;2023-04-04T01:51:27;103019.94;;;-2.13;100.00
23574;BME280;11965;53.640;10.050;2023-04-04T01:53:54;103024.41;;;-2.12;100.00
23574;BME280;11965;53.640;10.050;2023-04-04T01:56:22;103021.75;;;-2.14;100.00
23574;BME280;11965;53.640;10.050;2023-04-04T01:58:50;103012.63;;;-2.11;100.00
23574;BME280;11965;53.640;10.050;2023-04-04T02:01:18;103007.19;;;-2.11;100.00
23574;BME280;11965;53.640;10.050;2023-04-04T02:03:45;102997.94;;;-2.07;100.00
23574;BME280;11965;53.640;10.050;2023-04-04T02:06:12;103003.34;;;-2.06;100.00
23574;BME280;11965;53.640;10.050;2023-04-04T02:08:39;103007.81;;;-2.05;100.00
23574;BME280;11965;53.640;10.050;2023-04-04T02:11:08;103004.47;;;-2.11;100.00
23574;BME280;11965;53.640;10.050;2023-04-04T02:13:35;103005.38;;;-2.12;100.00
23574;BME280;11965;53.640;10.050;2023-04-04T02:16:08;103004.50;;;-2.13;100.00
23574;BME280;11965;53.640;10.050;2023-04-04T02:18:35;103007.19;;;-2.11;100.00
23574;BME280;11965;53.640;10.050;2023-04-04T02:21:02;103008.06;;;-2.11;100.00
23574;BME280;11965;53.640;10.050;2023-04-04T02:23:28;103001.06;;;-2.18;100.00
23574;BME280;11965;53.640;10.050;2023-04-04T02:25:55;103006.59;;;-2.19;100.00
23574;BME280;11965;53.640;10.050;2023-04-04T02:28:22;102994.84;;;-2.20;100.00
23574;BME280;11965;53.640;10.050;2023-04-04T02:30:49;103003.00;;;-2.20;100.00
23574;BME280;11965;53.640;10.050;2023-04-04T02:33:18;103002.06;;;-2.20;100.00
23574;BME280;11965;53.640;10.050;2023-04-04T02:35:46;103003.91;;;-2.21;100.00
23574;BME280;11965;53.640;10.050;2023-04-04T02:38:13;103004.78;;;-2.20;100.00
23574;BME280;11965;53.640;10.050;2023-04-04T02:40:45;103003.00;;;-2.20;100.00
23574;BME280;11965;53.640;10.050;2023-04-04T02:43:14;103002.16;;;-2.22;100.00
23574;BME280;11965;53.640;10.050;2023-04-04T02:45:42;103002.00;;;-2.17;100.00
23574;BME280;11965;53.640;10.050;2023-04-04T02:48:24;103002.78;;;-2.15;100.00
23574;BME280;11965;53.640;10.050;2023-04-04T02:50:55;103001.19;;;-2.21;100.00
23574;BME280;11965;53.640;10.050;2023-04-04T02:53:22;103004.16;;;-2.27;100.00
23574;BME280;11965;53.640;10.050;2023-04-04T02:55:52;103002.44;;;-2.30;100.00
23574;BME280;11965;53.640;10.050;2023-04-04T02:58:19;103001.50;;;-2.29;100.00
23574;BME280;11965;53.640;10.050;2023-04-04T03:00:52;103003.28;;;-2.28;100.00
23574;BME280;11965;53.640;10.050;2023-04-04T03:03:21;103002.19;;;-2.24;100.00
23574;BME280;11965;53.640;10.050;2023-04-04T03:05:50;103001.91;;;-2.16;100.00
23574;BME280;11965;53.640;10.050;2023-04-04T03:08:17;103004.72;;;-2.17;100.00
23574;BME280;11965;53.640;10.050;2023-04-04T03:10:44;103006.47;;;-2.16;100.00
23574;BME280;11965;53.640;10.050;2023-04-04T03:13:11;103005.50;;;-2.15;100.00
23574;BME280;11965;53.640;10.050;2023-04-04T03:15:39;103007.19;;;-2.11;100.00
23574;BME280;11965;53.640;10.050;2023-04-04T03:18:06;103004.50;;;-2.13;100.00
23574;BME280;11965;53.640;10.050;2023-04-04T03:20:34;103001.63;;;-2.08;100.00
23574;BME280;11965;53.640;10.050;2023-04-04T03:23:04;103004.28;;;-2.07;100.00
23574;BME280;11965;53.640;10.050;2023-04-04T03:25:31;103001.50;;;-2.05;100.00
23574;BME280;11965;53.640;10.050;2023-04-04T03:28:07;102994.31;;;-2.06;100.00
23574;BME280;11965;53.640;10.050;2023-04-04T03:30:34;102992.34;;;-2.03;100.00
23574;BME280;11965;53.640;10.050;2023-04-04T03:33:03;102994.19;;;-2.03;100.00
23574;BME280;11965;53.640;10.050;2023-04-04T03:35:34;102985.25;;;-2.07;100.00
23574;BME280;11965;53.640;10.050;2023-04-04T03:38:02;102997.06;;;-2.08;100.00
23574;BME280;11965;53.640;10.050;2023-04-04T03:40:31;102996.34;;;-2.13;100.00
23574;BME280;11965;53.640;10.050;2023-04-04T03:42:58;102986.31;;;-2.11;100.00
23574;BME280;11965;53.640;10.050;2023-04-04T03:45:27;103002.50;;;-2.08;100.00
23574;BME280;11965;53.640;10.050;2023-04-04T03:47:54;102982.72;;;-2.11;100.00
23574;BME280;11965;53.640;10.050;2023-04-04T03:50:22;102996.06;;;-2.05;100.00
23574;BME280;11965;53.640;10.050;2023-04-04T03:52:51;102988.03;;;-2.08;100.00
23574;BME280;11965;53.640;10.050;2023-04-04T03:55:18;102992.84;;;-2.15;100.00
23574;BME280;11965;53.640;10.050;2023-04-04T03:57:47;102988.06;;;-2.10;100.00
23574;BME280;11965;53.640;10.050;2023-04-04T04:00:15;102978.91;;;-2.07;100.00
23574;BME280;11965;53.640;10.050;2023-04-04T04:02:43;102981.47;;;-2.03;100.00
23574;BME280;11965;53.640;10.050;2023-04-04T04:05:10;102974.28;;;-2.04;100.00
23574;BME280;11965;53.640;10.050;2023-04-04T04:07:37;102977.78;;;-2.02;100.00
23574;BME280;11965;53.640;10.050;2023-04-04T04:10:04;102983.06;;;-1.97;100.00
23574;BME280;11965;53.640;10.050;2023-04-04T04:12:31;102982.34;;;-2.02;100.00
23574;BME280;11965;53.640;10.050;2023-04-04T04:15:00;102987.97;;;-2.07;100.00
23574;BME280;11965;53.640;10.050;2023-04-04T04:17:29;102984.44;;;-2.09;100.00
23574;BME280;11965;53.640;10.050;2023-04-04T04:19:57;102976.78;;;-1.99;100.00
23574;BME280;11965;53.640;10.050;2023-04-04T04:22:25;102976.78;;;-1.99;100.00
23574;BME280;11965;53.640;10.050;2023-04-04T04:24:52;102980.41;;;-1.98;100.00
23574;BME280;11965;53.640;10.050;2023-04-04T04:27:19;102977.75;;;-2.00;100.00
23574;BME280;11965;53.640;10.050;2023-04-04T04:29:46;102973.25;;;-2.01;100.00
23574;BME280;11965;53.640;10.050;2023-04-04T04:32:16;102969.63;;;-2.02;100.00
23574;BME280;11965;53.640;10.050;2023-04-04T04:34:47;102975.91;;;-2.00;100.00
23574;BME280;11965;53.640;10.050;2023-04-04T04:37:15;102976.78;;;-1.99;100.00
23574;BME280;11965;53.640;10.050;2023-04-04T04:39:46;102977.03;;;-2.05;100.00
23574;BME280;11965;53.640;10.050;2023-04-04T04:42:33;102971.72;;;-2.08;100.00
23574;BME280;11965;53.640;10.050;2023-04-04T04:45:02;102968.88;;;-2.05;100.00
23574;BME280;11965;53.640;10.050;2023-04-04T04:47:33;102967.00;;;-2.03;100.00
23574;BME280;11965;53.640;10.050;2023-04-04T04:50:04;102979.72;;;-2.04;100.00
23574;BME280;11965;53.640;10.050;2023-04-04T04:52:37;102975.50;;;-2.12;100.00
23574;BME280;11965;53.640;10.050;2023-04-04T04:55:05;102981.59;;;-2.06;100.00
23574;BME280;11965;53.640;10.050;2023-04-04T04:57:34;102982.34;;;-2.02;100.00
23574;BME280;11965;53.640;10.050;2023-04-04T05:00:09;102978.69;;;-2.01;100.00
23574;BME280;11965;53.640;10.050;2023-04-04T05:02:38;102980.59;;;-2.03;100.00
23574;BME280;11965;53.640;10.050;2023-04-04T05:05:06;102979.41;;;-1.96;100.00
23574;BME280;11965;53.640;10.050;2023-04-04T05:07:34;102987.47;;;-1.94;100.00
23574;BME280;11965;53.640;10.050;2023-04-04T05:10:03;102980.28;;;-1.95;100.00
23574;BME280;11965;53.640;10.050;2023-04-04T05:12:30;102979.28;;;-1.93;100.00
23574;BME280;11965;53.640;10.050;2023-04-04T05:14:58;102987.34;;;-1.91;100.00
23574;BME280;11965;53.640;10.050;2023-04-04T05:17:25;102973.97;;;-1.96;100.00
23574;BME280;11965;53.640;10.050;2023-04-04T05:19:56;102974.78;;;-1.94;100.00
23574;BME280;11965;53.640;10.050;2023-04-04T05:22:23;102979.28;;;-1.93;100.00
23574;BME280;11965;53.640;10.050;2023-04-04T05:24:51;102978.44;;;-1.95;100.00
23574;BME280;11965;53.640;10.050;2023-04-04T05:27:22;102976.59;;;-1.94;100.00
23574;BME280;11965;53.640;10.050;2023-04-04T05:29:55;102975.72;;;-1.95;100.00
23574;BME280;11965;53.640;10.050;2023-04-04T05:32:23;102975.34;;;-1.86;100.00
23574;BME280;11965;53.640;10.050;2023-04-04T05:35:05;102981.44;;;-1.79;100.00
23574;BME280;11965;53.640;10.050;2023-04-04T05:37:37;102978.28;;;-1.68;100.00
23574;BME280;11965;53.640;10.050;2023-04-04T05:40:06;102987.06;;;-1.62;100.00
23574;BME280;11965;53.640;10.050;2023-04-04T05:42:34;102980.56;;;-1.58;100.00
23574;BME280;11965;53.640;10.050;2023-04-04T05:45:01;102983.84;;;-1.49;100.00
23574;BME280;11965;53.640;10.050;2023-04-04T05:47:29;102985.16;;;-1.38;100.00
23574;BME280;11965;53.640;10.050;2023-04-04T05:49:56;102979.47;;;-1.31;100.00
23574;BME280;11965;53.640;10.050;2023-04-04T05:52:25;102978.25;;;-1.24;100.00
23574;BME280;11965;53.640;10.050;2023-04-04T05:54:52;102986.63;;;-1.08;100.00
23574;BME280;11965;53.640;10.050;2023-04-04T05:57:27;102979.69;;;-0.95;100.00
23574;BME280;11965;53.640;10.050;2023-04-04T05:59:56;102986.56;;;-0.86;100.00
23574;BME280;11965;53.640;10.050;2023-04-04T06:02:24;102984.75;;;-0.86;100.00
23574;BME280;11965;53.640;10.050;2023-04-04T06:04:58;102987.25;;;-0.81;100.00
23574;BME280;11965;53.640;10.050;2023-04-04T06:07:33;102994.41;;;-0.79;100.00
23574;BME280;11965;53.640;10.050;2023-04-04T06:10:00;102986.16;;;-0.77;100.00
23574;BME280;11965;53.640;10.050;2023-04-04T06:12:28;102986.03;;;-0.74;99.80
23574;BME280;11965;53.640;10.050;2023-04-04T06:14:55;102979.63;;;-0.73;100.00
23574;BME280;11965;53.640;10.050;2023-04-04T06:17:22;102982.81;;;-0.84;100.00
23574;BME280;11965;53.640;10.050;2023-04-04T06:19:49;102982.81;;;-0.84;99.41
23574;BME280;11965;53.640;10.050;2023-04-04T06:22:17;102983.66;;;-0.82;100.00
23574;BME280;11965;53.640;10.050;2023-04-04T06:24:49;102996.25;;;-0.79;100.00
23574;BME280;11965;53.640;10.050;2023-04-04T06:27:16;102993.38;;;-0.76;100.00
23574;BME280;11965;53.640;10.050;2023-04-04T06:29:45;102992.53;;;-0.78;100.00
23574;BME280;11965;53.640;10.050;2023-04-04T06:32:16;102988.81;;;-0.76;100.00
23574;BME280;11965;53.640;10.050;2023-04-04T06:34:43;102990.38;;;-0.70;100.00
23574;BME280;11965;53.640;10.050;2023-04-04T06:37:11;102984.22;;;-0.55;100.00
23574;BME280;11965;53.640;10.050;2023-04-04T06:39:48;102986.56;;;-0.46;100.00
23574;BME280;11965;53.640;10.050;2023-04-04T06:42:21;102985.28;;;-0.38;100.00
23574;BME280;11965;53.640;10.050;2023-04-04T06:44:50;102980.47;;;-0.32;99.88
23574;BME280;11965;53.640;10.050;2023-04-04T06:47:17;102976.56;;;-0.26;97.02
23574;BME280;11965;53.640;10.050;2023-04-04T06:49:44;102979.88;;;-0.19;96.88
23574;BME280;11965;53.640;10.050;2023-04-04T06:52:11;102976.63;;;-0.09;96.72
23574;BME280;11965;53.640;10.050;2023-04-04T06:54:38;102965.50;;;-0.04;95.01
23574;BME280;11965;53.640;10.050;2023-04-04T06:57:06;102977.81;;;0.05;94.28
23574;BME280;11965;53.640;10.050;2023-04-04T06:59:33;102980.69;;;0.20;90.34
23574;BME280;11965;53.640;10.050;2023-04-04T07:02:00;102970.94;;;0.34;89.12
23574;BME280;11965;53.640;10.050;2023-04-04T07:04:27;102973.63;;;0.53;87.13
23574;BME280;11965;53.640;10.050;2023-04-04T07:06:57;102971.16;;;0.65;86.24
23574;BME280;11965;53.640;10.050;2023-04-04T07:09:23;102966.34;;;0.71;86.32
23574;BME280;11965;53.640;10.050;2023-04-04T07:11:51;102967.22;;;0.71;86.95
23574;BME280;11965;53.640;10.050;2023-04-04T07:14:19;102957.03;;;0.75;87.78
23574;BME280;11965;53.640;10.050;2023-04-04T07:16:49;102960.19;;;0.84;87.79
23574;BME280;11965;53.640;10.050;2023-04-04T07:19:16;102963.41;;;0.93;86.59
23574;BME280;11965;53.640;10.050;2023-04-04T07:21:43;102961.94;;;1.03;84.96
23574;BME280;11965;53.640;10.050;2023-04-04T07:24:10;102957.84;;;1.12;85.93
23574;BME280;11965;53.640;10.050;2023-04-04T07:26:37;102957.28;;;1.22;82.57
23574;BME280;11965;53.640;10.050;2023-04-04T07:29:05;102954.13;;;1.30;83.86
23574;BME280;11965;53.640;10.050;2023-04-04T07:31:33;102962.16;;;1.33;79.46
23574;BME280;11965;53.640;10.050;2023-04-04T07:34:00;102950.00;;;1.39;78.15
23574;BME280;11965;53.640;10.050;2023-04-04T07:36:28;102955.25;;;1.43;79.05
23574;BME280;11965;53.640;10.050;2023-04-04T07:38:55;102949.72;;;1.61;75.49
23574;BME280;11965;53.640;10.050;2023-04-04T07:41:22;102949.03;;;1.73;77.04
23574;BME280;11965;53.640;10.050;2023-04-04T07:43:50;102956.53;;;1.85;72.88
23574;BME280;11965;53.640;10.050;2023-04-04T07:46:17;102955.25;;;2.08;68.29
23574;BME280;11965;53.640;10.050;2023-04-04T07:48:46;102946.16;;;2.24;66.28
23574;BME280;11965;53.640;10.050;2023-04-04T07:51:13;102952.31;;;2.43;69.61
23574;BME280;11965;53.640;10.050;2023-04-04T07:53:40;102959.66;;;2.58;67.57
23574;BME280;11965;53.640;10.050;2023-04-04T07:56:07;102955.22;;;2.72;66.33
23574;BME280;11965;53.640;10.050;2023-04-04T07:58:34;102955.50;;;2.81;66.65
23574;BME280;11965;53.640;10.050;2023-04-04T08:01:02;102956.50;;;2.80;64.25
23574;BME280;11965;53.640;10.050;2023-04-04T08:03:29;102960.47;;;2.91;63.42
23574;BME280;11965;53.640;10.050;2023-04-04T08:05:57;102950.41;;;3.05;64.61
23574;BME280;11965;53.640;10.050;2023-04-04T08:08:24;102943.78;;;3.09;66.09
23574;BME280;11965;53.640;10.050;2023-04-04T08:10:51;102946.03;;;3.17;63.53
23574;BME280;11965;53.640;10.050;2023-04-04T08:13:18;102938.16;;;3.41;63.82
23574;BME280;11965;53.640;10.050;2023-04-04T08:15:45;102943.22;;;3.62;62.75
23574;BME280;11965;53.640;10.050;2023-04-04T08:18:12;102936.97;;;3.74;61.39
23574;BME280;11965;53.640;10.050;2023-04-04T08:20:39;102934.50;;;3.84;56.58
23574;BME280;11965;53.640;10.050;2023-04-04T08:23:08;102928.56;;;4.18;54.06
23574;BME280;11965;53.640;10.050;2023-04-04T08:25:35;102925.25;;;4.40;56.18
23574;BME280;11965;53.640;10.050;2023-04-04T08:28:02;102926.50;;;4.49;57.48
23574;BME280;11965;53.640;10.050;2023-04-04T08:30:30;102922.69;;;4.64;52.50
23574;BME280;11965;53.640;10.050;2023-04-04T08:32:57;102928.59;;;4.85;53.81
23574;BME280;11965;53.640;10.050;2023-04-04T08:35:24;102926.53;;;4.89;51.96
23574;BME280;11965;53.640;10.050;2023-04-04T08:37:50;102925.44;;;4.92;51.05
23574;BME280;11965;53.640;10.050;2023-04-04T08:40:19;102935.56;;;5.04;47.51
23574;BME280;11965;53.640;10.050;2023-04-04T08:42:49;102933.03;;;5.01;46.82
23574;BME280;11965;53.640;10.050;2023-04-04T08:45:18;102929.94;;;4.93;48.98
23574;BME280;11965;53.640;10.050;2023-04-04T08:47:47;102931.38;;;4.98;47.41
23574;BME280;11965;53.640;10.050;2023-04-04T08:50:15;102923.47;;;5.06;47.31
23574;BME280;11965;53.640;10.050;2023-04-04T08:52:44;102916.34;;;5.17;48.59
23574;BME280;11965;53.640;10.050;2023-04-04T08:55:12;102925.56;;;5.28;48.31
23574;BME280;11965;53.640;10.050;2023-04-04T08:57:41;102920.84;;;5.30;44.19
23574;BME280;11965;53.640;10.050;2023-04-04T09:00:08;102920.72;;;5.45;44.08
23574;BME280;11965;53.640;10.050;2023-04-04T09:02:41;102913.44;;;5.69;46.12
23574;BME280;11965;53.640;10.050;2023-04-04T09:05:12;102914.09;;;5.86;43.20
23574;BME280;11965;53.640;10.050;2023-04-04T09:07:40;102917.69;;;6.12;44.01
23574;BME280;11965;53.640;10.050;2023-04-04T09:10:09;102920.31;;;6.26;43.24
23574;BME280;11965;53.640;10.050;2023-04-04T09:12:42;102917.69;;;6.12;42.55
23574;BME280;11965;53.640;10.050;2023-04-04T09:15:10;102914.34;;;5.70;44.99
23574;BME280;11965;53.640;10.050;2023-04-04T09:17:38;102907.44;;;5.39;43.61
23574;BME280;11965;53.640;10.050;2023-04-04T09:20:32;102905.19;;;5.69;45.51
23574;BME280;11965;53.640;10.050;2023-04-04T09:22:59;102907.66;;;5.48;45.91
23574;BME280;11965;53.640;10.050;2023-04-04T09:25:26;102905.00;;;5.60;48.84
23574;BME280;11965;53.640;10.050;2023-04-04T09:27:54;102910.03;;;5.66;45.79
23574;BME280;11965;53.640;10.050;2023-04-04T09:30:22;102906.38;;;6.04;47.23
23574;BME280;11965;53.640;10.050;2023-04-04T09:32:49;102899.81;;;6.17;45.70
23574;BME280;11965;53.640;10.050;2023-04-04T09:35:19;102904.06;;;6.58;45.75
23574;BME280;11965;53.640;10.050;2023-04-04T09:37:46;102897.88;;;6.79;42.55
23574;BME280;11965;53.640;10.050;2023-04-04T09:40:13;102899.41;;;6.83;42.28
23574;BME280;11965;53.640;10.050;2023-04-04T09:42:42;102888.63;;;6.80;44.72
23574;BME280;11965;53.640;10.050;2023-04-04T09:45:10;102887.13;;;6.87;41.71
23574;BME280;11965;53.640;10.050;2023-04-04T09:47:39;102882.72;;;6.84;39.73
23574;BME280;11965;53.640;10.050;2023-04-04T09:50:08;102884.78;;;6.94;40.35
23574;BME280;11965;53.640;10.050;2023-04-04T09:52:35;102893.72;;;6.73;39.41
23574;BME280;11965;53.640;10.050;2023-04-04T09:55:04;102892.63;;;6.87;39.59
23574;BME280;11965;53.640;10.050;2023-04-04T09:57:33;102882.91;;;7.05;40.73
23574;BME280;11965;53.640;10.050;2023-04-04T10:00:03;102880.59;;;7.46;43.20
23574;BME280;11965;53.640;10.050;2023-04-04T10:02:37;102873.88;;;7.03;41.33
23574;BME280;11965;53.640;10.050;2023-04-04T10:05:08;102869.47;;;6.90;41.97
23574;BME280;11965;53.640;10.050;2023-04-04T10:07:38;102875.31;;;6.74;42.01
23574;BME280;11965;53.640;10.050;2023-04-04T10:10:06;102865.59;;;6.92;39.04
23574;BME280;11965;53.640;10.050;2023-04-04T10:12:36;102872.50;;;6.98;39.24
23574;BME280;11965;53.640;10.050;2023-04-04T10:15:03;102870.13;;;6.93;39.67
23574;BME280;11965;53.640;10.050;2023-04-04T10:17:41;102869.25;;;6.69;38.17
23574;BME280;11965;53.640;10.050;2023-04-04T10:20:09;102866.78;;;6.41;36.93
23574;BME280;11965;53.640;10.050;2023-04-04T10:22:37;102869.28;;;6.45;40.07
23574;BME280;11965;53.640;10.050;2023-04-04T10:25:05;102878.66;;;6.66;43.08
23574;BME280;11965;53.640;10.050;2023-04-04T10:27:34;102867.81;;;6.87;45.30
23574;BME280;11965;53.640;10.050;2023-04-04T10:30:03;102872.47;;;6.86;42.91
23574;BME280;11965;53.640;10.050;2023-04-04T10:32:40;102864.31;;;6.85;41.52
23574;BME280;11965;53.640;10.050;2023-04-04T10:35:11;102855.50;;;7.15;42.41
23574;BME280;11965;53.640;10.050;2023-04-04T10:37:43;102849.84;;;7.28;39.07
23574;BME280;11965;53.640;10.050;2023-04-04T10:40:16;102856.88;;;7.10;37.14
23574;BME280;11965;53.640;10.050;2023-04-04T10:42:45;102850.59;;;7.19;39.09
23574;BME280;11965;53.640;10.050;2023-04-04T10:45:14;102849.22;;;7.24;39.84
23574;BME280;11965;53.640;10.050;2023-04-04T10:47:43;102853.25;;;7.20;36.50
23574;BME280;11965;53.640;10.050;2023-04-04T10:50:12;102833.78;;;6.99;38.20
23574;BME280;11965;53.640;10.050;2023-04-04T10:52:43;102840.59;;;7.18;38.88
23574;BME280;11965;53.640;10.050;2023-04-04T10:55:12;102840.59;;;7.18;37.44
23574;BME280;11965;53.640;10.050;2023-04-04T10:57:42;102830.16;;;7.21;34.85
23574;BME280;11965;53.640;10.050;2023-04-04T11:00:11;102840.59;;;7.18;33.49
23574;BME280;11965;53.640;10.050;2023-04-04T11:02:47;102827.66;;;7.41;35.65
23574;BME280;11965;53.640;10.050;2023-04-04T11:05:23;102830.19;;;7.55;38.06
23574;BME280;11965;53.640;10.050;2023-04-04T11:07:57;102834.56;;;7.46;34.95
23574;BME280;11965;53.640;10.050;2023-04-04T11:10:26;102828.41;;;7.43;34.11
23574;BME280;11965;53.640;10.050;2023-04-04T11:12:56;102830.28;;;7.53;33.77
23574;BME280;11965;53.640;10.050;2023-04-04T11:15:44;102828.25;;;7.78;36.57
23574;BME280;11965;53.640;10.050;2023-04-04T11:18:12;102827.19;;;8.13;33.02
23574;BME280;11965;53.640;10.050;2023-04-04T11:20:41;102824.25;;;7.82;35.24
23574;BME280;11965;53.640;10.050;2023-04-04T11:23:14;102813.75;;;8.52;38.07
23574;BME280;11965;53.640;10.050;2023-04-04T11:25:51;102806.97;;;8.77;34.09
23574;BME280;11965;53.640;10.050;2023-04-04T11:28:26;102798.00;;;8.84;36.83
23574;BME280;11965;53.640;10.050;2023-04-04T11:31:22;102797.78;;;9.28;33.89
23574;BME280;11965;53.640;10.050;2023-04-04T11:33:54;102799.41;;;9.31;33.88
23574;BME280;11965;53.640;10.050;2023-04-04T11:36:49;102793.81;;;9.51;34.56
23574;BME280;11965;53.640;10.050;2023-04-04T11:39:24;102791.84;;;9.33;32.90
23574;BME280;11965;53.640;10.050;2023-04-04T11:41:52;102784.28;;;8.83;33.77
23574;BME280;11965;53.640;10.050;2023-04-04T11:44:20;102790.78;;;8.08;32.63
23574;BME280;11965;53.640;10.050;2023-04-04T11:46:54;102785.03;;;8.32;35.50
23574;BME280;11965;53.640;10.050;2023-04-04T11:49:26;102782.66;;;8.06;36.63
23574;BME280;11965;53.640;10.050;2023-04-04T11:51:55;102778.44;;;8.23;32.44
23574;BME280;11965;53.640;10.050;2023-04-04T11:54:23;102770.69;;;8.38;30.85
23574;BME280;11965;53.640;10.050;2023-04-04T11:56:50;102773.56;;;8.15;32.59
23574;BME280;11965;53.640;10.050;2023-04-04T11:59:19;102777.41;;;8.24;34.80
23574;BME280;11965;53.640;10.050;2023-04-04T12:01:47;102773.69;;;8.46;34.57
23574;BME280;11965;53.640;10.050;2023-04-04T12:04:16;102772.50;;;8.60;31.93
23574;BME280;11965;53.640;10.050;2023-04-04T12:06:47;102773.97;;;8.64;32.64
23574;BME280;11965;53.640;10.050;2023-04-04T12:09:17;102764.38;;;8.89;33.42
23574;BME280;11965;53.640;10.050;2023-04-04T12:11:46;102768.13;;;9.09;32.27
23574;BME280;11965;53.640;10.050;2023-04-04T12:14:17;102764.22;;;9.12;31.00
23574;BME280;11965;53.640;10.050;2023-04-04T12:16:47;102764.81;;;8.43;31.53
23574;BME280;11965;53.640;10.050;2023-04-04T12:19:15;102764.72;;;8.33;31.01
23574;BME280;11965;53.640;10.050;2023-04-04T12:21:43;102765.31;;;8.36;32.91
23574;BME280;11965;53.640;10.050;2023-04-04T12:24:10;102761.75;;;8.46;30.92
23574;BME280;11965;53.640;10.050;2023-04-04T12:26:41;102756.59;;;8.20;34.88
23574;BME280;11965;53.640;10.050;2023-04-04T12:29:11;102762.44;;;7.94;34.05
23574;BME280;11965;53.640;10.050;2023-04-04T12:31:40;102756.72;;;8.18;35.07
23574;BME280;11965;53.640;10.050;2023-04-04T12:34:15;102753.06;;;8.50;35.52
23574;BME280;11965;53.640;10.050;2023-04-04T12:36:46;102748.41;;;8.72;33.44
23574;BME280;11965;53.640;10.050;2023-04-04T12:39:15;102746.72;;;8.38;32.60
23574;BME280;11965;53.640;10.050;2023-04-04T12:41:54;102743.19;;;8.36;32.43
23574;BME280;11965;53.640;10.050;2023-04-04T12:44:28;102741.81;;;8.63;32.92
23574;BME280;11965;53.640;10.050;2023-04-04T12:46:57;102732.69;;;8.93;32.66
23574;BME280;11965;53.640;10.050;2023-04-04T12:49:27;102732.31;;;8.77;31.43
23574;BME280;11965;53.640;10.050;2023-04-04T12:51:55;102723.06;;;8.46;33.91